New Creation — 3EGO6 — position and weather

sailwx.info

Track history (hours):
 
Tides and Currents Weather Stations Pressure Air Temp Water Temp Dewpoint Dewpoint Depression Visibility Wind Speed Wind Dir Waves Ship Positions

New Creation

Last reported at 2017-May-10 16:01 UTC. Time now 2017-Jun-25 06:50 UTC.
Position N 01°16' E 104°05'.
Warning: this ship's position is 45 days out of date.

Length 176 m; draft 5.8 m.

Type: Cargo ship. MMSI: 353507000.

Date/timePositionNaut miles runAvg speedWind from/ knotsBaromVisibWave heightAir tempDewpointWater temp
2017-May-10 16:01N 01°16' E 104°05'113.8
2017-May-10 15:56N 01°16' E 104°03'511.2
2017-May-10 15:30N 01°16' E 103°59'2 3.0
2017-May-10 15:00N 01°17' E 103°57'0 0.0
2017-May-10 14:00N 01°17' E 103°57'0 0.1
2017-May-10 13:21N 01°17' E 103°57'0 0.0
2017-May-10 12:57N 01°17' E 103°57'0 0.0
2017-May-10 12:30N 01°17' E 103°57'0 0.0
2017-May-10 12:00N 01°17' E 103°57'0 0.0
2017-May-10 11:24N 01°17' E 103°57'0 0.0
2017-May-10 11:00N 01°17' E 103°57'0 0.0
2017-May-10 10:21N 01°17' E 103°57'0 0.0
2017-May-10 09:54N 01°17' E 103°57'0 0.1
2017-May-10 08:45N 01°17' E 103°57'0 0.2
2017-May-10 08:30N 01°17' E 103°57'0 0.1
2017-May-10 08:00N 01°17' E 103°57'0 0.0
2017-May-10 07:30N 01°17' E 103°57'0 0.0
2017-May-10 07:00N 01°17' E 103°57'0 0.0
2017-May-10 06:30N 01°17' E 103°57'0 0.1
2017-May-10 05:54N 01°17' E 103°57'0 0.0
2017-May-10 05:27N 01°17' E 103°57'0 0.3
2017-May-10 04:48N 01°17' E 103°57'0 0.1
2017-May-10 04:27N 01°17' E 103°57'0 0.1
2017-May-10 03:57N 01°17' E 103°57'0 0.0
2017-May-10 03:30N 01°17' E 103°57'0 0.5
2017-May-10 03:00N 01°17' E 103°57'2 4.2
2017-May-10 02:30N 01°15' E 103°56'2 4.0
2017-May-10 02:00N 01°13' E 103°55'4 8.3
2017-May-10 01:29N 01°12' E 103°51'4 7.2
2017-May-10 00:59N 01°10' E 103°48'4 7.6
2017-May-10 00:30N 01°08' E 103°45'5 9.5
2017-May-09 23:58N 01°04' E 103°41'510.0
2017-May-09 23:28N 01°05' E 103°36'5 8.8
2017-May-09 22:55N 01°07' E 103°32'6 9.2
2017-May-09 22:14N 01°10' E 103°27'3 9.6
2017-May-09 21:56N 01°12' E 103°24'6910.7
2017-May-09 15:30N 01°48' E 102°26'  
Track history (hours):
 
Tides and Currents Weather Stations Pressure Air Temp Water Temp Dewpoint Dewpoint Depression Visibility Wind Speed Wind Dir Waves Ship Positions

New Creation

Last reported at 2017-May-10 16:01 UTC. Time now 2017-Jun-25 06:50 UTC.
Position N 01°16' E 104°05'.
Warning: this ship's position is 45 days out of date.

Length 176 m; draft 5.8 m.

Type: Cargo ship. MMSI: 353507000.

Date/timePositionNaut miles runAvg speedWind from/ knotsBaromVisibWave heightAir tempDewpointWater temp
2017-May-10 16:01N 01°16' E 104°05'113.8
2017-May-10 15:56N 01°16' E 104°03'511.2
2017-May-10 15:30N 01°16' E 103°59'2 3.0
2017-May-10 15:00N 01°17' E 103°57'0 0.0
2017-May-10 14:00N 01°17' E 103°57'0 0.1
2017-May-10 13:21N 01°17' E 103°57'0 0.0
2017-May-10 12:57N 01°17' E 103°57'0 0.0
2017-May-10 12:30N 01°17' E 103°57'0 0.0
2017-May-10 12:00N 01°17' E 103°57'0 0.0
2017-May-10 11:24N 01°17' E 103°57'0 0.0
2017-May-10 11:00N 01°17' E 103°57'0 0.0
2017-May-10 10:21N 01°17' E 103°57'0 0.0
2017-May-10 09:54N 01°17' E 103°57'0 0.1
2017-May-10 08:45N 01°17' E 103°57'0 0.2
2017-May-10 08:30N 01°17' E 103°57'0 0.1
2017-May-10 08:00N 01°17' E 103°57'0 0.0
2017-May-10 07:30N 01°17' E 103°57'0 0.0
2017-May-10 07:00N 01°17' E 103°57'0 0.0
2017-May-10 06:30N 01°17' E 103°57'0 0.1
2017-May-10 05:54N 01°17' E 103°57'0 0.0
2017-May-10 05:27N 01°17' E 103°57'0 0.3
2017-May-10 04:48N 01°17' E 103°57'0 0.1
2017-May-10 04:27N 01°17' E 103°57'0 0.1
2017-May-10 03:57N 01°17' E 103°57'0 0.0
2017-May-10 03:30N 01°17' E 103°57'0 0.5
2017-May-10 03:00N 01°17' E 103°57'2 4.2
2017-May-10 02:30N 01°15' E 103°56'2 4.0
2017-May-10 02:00N 01°13' E 103°55'4 8.3
2017-May-10 01:29N 01°12' E 103°51'4 7.2
2017-May-10 00:59N 01°10' E 103°48'4 7.6
2017-May-10 00:30N 01°08' E 103°45'5 9.5
2017-May-09 23:58N 01°04' E 103°41'510.0
2017-May-09 23:28N 01°05' E 103°36'5 8.8
2017-May-09 22:55N 01°07' E 103°32'6 9.2
2017-May-09 22:14N 01°10' E 103°27'3 9.6
2017-May-09 21:56N 01°12' E 103°24'6910.7
2017-May-09 15:30N 01°48' E 102°26'  

Dump ship's entire track history